Oenaville, Texas
Current Conditions -  °F | °C
As of 11:15 PM on Monday 20 Oct 2014 (Local Time) from KTPL Reporting Station
Clear Clear  
Wind Chill: 66°   Ceiling: Unl
Heat Index: 66°   Visibility: 10mi
Dew Point: 55°   Wind: 7mph
Humidity: 68%   Direction: 100°E
Pressure: 30.05"   Gusts: NA
Location:  31.0795°N, 97.3287°W
Report Text: KTPL 210415Z AUTO 10006KT 10SM CLR 19/13 A3005 RMK AO1
Loading
Personal Weather Stations






























Interactive Weather Map
Tropical Storm Tracking
New forecast layout! Learn more

10-Day Weather Forecast

Advertisements
Track Severe Weather on mobile